Time;durP1;ratioP1;P1;durP2;ratioP2;P2;SDS_P1;SDS_P2;PMS_P1;PMS_P2;Temp;Humidity;BMP_temperature;BMP_pressure;BME280_temperature;BME280_humidity;BME280_pressure;Samples;Min_cycle;Max_cycle;Signal;HPM_P1;HPM_P2
2022/12/29 00:00:51;;;;;;;1.33;0.80;;;11.70;99.90;;;;;;2073278;28;20033;-72
2022/12/29 00:01:52;;;;;;;0.80;0.80;;;11.70;99.90;;;;;;2072987;28;20029;-72
2022/12/29 00:02:52;;;;;;;0.60;0.60;;;11.70;99.90;;;;;;2075306;28;20022;-72
2022/12/29 00:03:53;;;;;;;0.93;0.75;;;11.70;99.90;;;;;;2074270;28;20029;-72
2022/12/29 00:04:53;;;;;;;2.92;0.80;;;11.70;99.90;;;;;;2074063;28;20032;-72
2022/12/29 00:05:57;;;;;;;0.40;0.40;;;11.70;99.90;;;;;;2073936;28;20462;-72
2022/12/29 00:06:57;;;;;;;2.97;0.80;;;11.70;99.90;;;;;;2075081;28;20120;-72
2022/12/29 00:07:58;;;;;;;0.80;0.70;;;11.70;99.90;;;;;;2075688;28;20026;-72
2022/12/29 00:08:58;;;;;;;2.00;0.85;;;11.80;99.90;;;;;;2072703;28;20137;-72
2022/12/29 00:09:59;;;;;;;1.85;0.80;;;11.80;99.90;;;;;;2074177;28;20025;-72
2022/12/29 00:10:59;;;;;;;0.52;0.52;;;11.70;99.90;;;;;;2074638;28;20029;-72
2022/12/29 00:12:02;;;;;;;1.15;0.80;;;11.70;99.90;;;;;;2075363;28;20021;-72
2022/12/29 00:15:41;;;;;;;0.93;0.68;;;11.80;99.90;;;;;;2075721;28;20025;-72
2022/12/29 00:16:43;;;;;;;1.88;0.65;;;11.80;99.90;;;;;;2072713;28;20068;-72
2022/12/29 00:17:43;;;;;;;0.70;0.70;;;11.80;99.90;;;;;;2072850;28;20014;-72
2022/12/29 00:18:44;;;;;;;0.98;0.75;;;11.80;99.90;;;;;;2073163;28;20025;-72
2022/12/29 00:35:52;;;;;;;2.92;0.98;;;11.70;99.90;;;;;;2072662;28;20026;-72
2022/12/29 00:36:52;;;;;;;1.08;0.98;;;11.70;99.90;;;;;;2075260;28;20121;-72
2022/12/29 00:44:04;;;;;;;1.35;0.75;;;11.70;99.90;;;;;;2065019;28;20042;-72
2022/12/29 00:44:57;;;;;;;1.00;0.90;;;11.70;99.90;;;;;;2073733;28;20057;-72
2022/12/29 00:45:57;;;;;;;1.20;1.10;;;11.70;99.90;;;;;;2074931;28;20029;-72
2022/12/29 00:47:02;;;;;;;2.35;0.90;;;11.70;99.90;;;;;;2072585;28;20065;-72
2022/12/29 00:48:02;;;;;;;1.13;0.80;;;11.70;99.90;;;;;;2072836;28;20029;-72
2022/12/29 00:50:23;;;;;;;;;;;11.70;99.90;;;;;;2074792;28;20042;-72
2022/12/29 00:51:27;;;;;;;0.63;0.63;;;11.70;99.90;;;;;;2073390;28;20320;-72
2022/12/29 00:52:27;;;;;;;1.88;0.80;;;11.70;99.90;;;;;;2074971;28;20676;-72
2022/12/29 00:53:28;;;;;;;0.65;0.63;;;11.70;99.90;;;;;;2072008;28;20025;-72
2022/12/29 00:54:31;;;;;;;0.77;0.75;;;11.70;99.90;;;;;;2073953;28;20067;-72
2022/12/29 00:55:36;;;;;;;0.70;0.50;;;11.80;99.90;;;;;;2072827;28;20033;-72
2022/12/29 00:56:37;;;;;;;0.50;0.50;;;11.80;99.90;;;;;;2076032;28;20140;-72
2022/12/29 00:57:37;;;;;;;0.80;0.80;;;11.80;99.90;;;;;;2075435;28;20028;-72
2022/12/29 00:58:38;;;;;;;0.93;0.82;;;11.80;99.90;;;;;;2074754;28;20022;-72
2022/12/29 00:59:40;;;;;;;1.38;0.70;;;11.80;99.90;;;;;;2074034;28;20026;-72
2022/12/29 01:00:40;;;;;;;0.80;0.80;;;11.80;99.90;;;;;;2076222;28;20028;-72
2022/12/29 01:01:41;;;;;;;0.50;0.50;;;11.80;99.90;;;;;;2073145;28;20117;-72
2022/12/29 01:02:41;;;;;;;0.68;0.65;;;11.90;99.90;;;;;;2073917;28;20029;-72
2022/12/29 01:03:42;;;;;;;3.00;0.70;;;11.80;99.90;;;;;;2075445;28;20021;-72
2022/12/29 01:04:42;;;;;;;0.70;0.63;;;11.80;99.90;;;;;;2075233;28;20025;-72
2022/12/29 01:05:43;;;;;;;1.25;0.77;;;11.90;99.90;;;;;;2072164;28;21034;-72
2022/12/29 01:06:44;;;;;;;5.18;0.82;;;11.90;99.90;;;;;;2074402;28;20030;-72
2022/12/29 01:07:44;;;;;;;1.48;0.70;;;11.90;99.90;;;;;;2073653;28;20034;-72
2022/12/29 01:08:45;;;;;;;1.00;0.93;;;11.90;99.90;;;;;;2073947;28;20156;-72
2022/12/29 01:10:28;;;;;;;3.42;0.80;;;11.90;99.90;;;;;;2073860;28;20100;-72
2022/12/29 01:11:12;;;;;;;0.50;0.50;;;11.90;99.90;;;;;;2068145;28;20075;-72
2022/12/29 01:12:12;;;;;;;1.15;0.60;;;11.90;99.90;;;;;;2073178;28;20080;-73
2022/12/29 01:13:13;;;;;;;0.90;0.68;;;11.90;99.90;;;;;;2074577;28;20079;-72
2022/12/29 01:14:14;;;;;;;1.50;0.50;;;11.90;99.90;;;;;;2074747;28;20030;-72
2022/12/29 01:15:15;;;;;;;1.63;0.70;;;11.90;99.90;;;;;;2073145;28;20096;-72
2022/12/29 01:16:15;;;;;;;0.77;0.77;;;11.90;99.90;;;;;;2074856;28;20033;-72
2022/12/29 01:17:16;;;;;;;0.50;0.50;;;11.90;99.90;;;;;;2074125;28;20029;-72
2022/12/29 01:18:16;;;;;;;1.95;0.68;;;11.90;99.90;;;;;;2074127;28;20597;-72
2022/12/29 01:19:18;;;;;;;0.47;0.47;;;11.90;99.90;;;;;;2073575;28;20502;-72
2022/12/29 01:20:19;;;;;;;0.50;0.50;;;11.90;99.90;;;;;;2073736;28;20041;-72
2022/12/29 01:21:19;;;;;;;0.55;0.55;;;11.90;99.90;;;;;;2073368;28;20037;-72
2022/12/29 01:22:20;;;;;;;0.70;0.70;;;11.90;99.90;;;;;;2073629;28;20030;-72
2022/12/29 01:23:20;;;;;;;0.65;0.65;;;11.90;99.90;;;;;;2072850;28;20183;-72
2022/12/29 01:24:21;;;;;;;0.73;0.40;;;12.00;99.90;;;;;;2075377;28;20072;-72
2022/12/29 01:25:22;;;;;;;0.43;0.43;;;11.90;99.90;;;;;;2076492;28;20022;-72
2022/12/29 01:26:22;;;;;;;0.70;0.50;;;11.90;99.90;;;;;;2072034;28;20034;-72
2022/12/29 01:27:23;;;;;;;1.88;0.70;;;11.90;99.90;;;;;;2067077;28;20438;-72
2022/12/29 01:28:24;;;;;;;0.43;0.40;;;11.90;99.90;;;;;;2073819;28;20021;-72
2022/12/29 01:29:24;;;;;;;0.80;0.40;;;11.90;99.90;;;;;;2073675;28;20139;-72
2022/12/29 01:30:25;;;;;;;0.50;0.50;;;11.90;99.90;;;;;;2073661;28;20049;-72
2022/12/29 01:31:25;;;;;;;1.65;0.73;;;11.90;99.90;;;;;;2074961;28;20017;-72
2022/12/29 01:32:26;;;;;;;0.47;0.47;;;11.90;99.90;;;;;;2073749;28;20040;-72
2022/12/29 01:33:26;;;;;;;0.35;0.35;;;11.90;99.90;;;;;;2072793;28;20030;-72
2022/12/29 01:34:27;;;;;;;0.50;0.50;;;12.00;99.90;;;;;;2071869;28;20517;-72
2022/12/29 01:35:28;;;;;;;0.50;0.45;;;12.00;99.90;;;;;;2073339;28;20072;-72
2022/12/29 01:36:29;;;;;;;0.68;0.50;;;12.00;99.90;;;;;;2072217;28;20049;-72
2022/12/29 01:37:30;;;;;;;0.50;0.50;;;12.00;99.90;;;;;;2074761;28;20063;-72
2022/12/29 01:38:31;;;;;;;0.40;0.40;;;12.00;99.90;;;;;;2073230;28;20221;-72
2022/12/29 01:39:32;;;;;;;0.70;0.45;;;12.00;99.90;;;;;;2073493;28;20037;-72
2022/12/29 01:40:32;;;;;;;0.50;0.38;;;12.00;99.90;;;;;;2072657;28;20132;-72
2022/12/29 01:41:33;;;;;;;0.50;0.50;;;12.00;99.90;;;;;;2074204;28;20017;-72
2022/12/29 01:42:33;;;;;;;0.40;0.40;;;12.00;99.90;;;;;;2073501;28;20061;-72
2022/12/29 01:43:46;;;;;;;0.30;0.30;;;12.00;99.90;;;;;;2072396;28;20533;-72
2022/12/29 01:44:56;;;;;;;0.40;0.40;;;12.00;99.90;;;;;;2073821;28;20104;-72
2022/12/29 01:45:56;;;;;;;0.32;0.30;;;12.00;99.90;;;;;;2073763;28;20136;-72
2022/12/29 01:46:57;;;;;;;0.70;0.40;;;12.00;99.90;;;;;;2074794;28;20486;-72
2022/12/29 01:48:04;;;;;;;0.32;0.32;;;12.00;99.90;;;;;;2072193;28;20034;-72
2022/12/29 01:49:11;;;;;;;0.30;0.30;;;12.10;99.90;;;;;;2073535;28;20799;-72
2022/12/29 01:50:20;;;;;;;0.95;0.38;;;12.10;99.90;;;;;;2074464;28;20032;-72
2022/12/29 01:51:24;;;;;;;0.82;0.40;;;12.10;99.90;;;;;;2071926;28;20021;-72
2022/12/29 01:52:28;;;;;;;0.30;0.30;;;12.10;99.90;;;;;;2065985;28;20626;-72
2022/12/29 01:53:32;;;;;;;0.40;0.40;;;12.10;99.90;;;;;;2075840;28;20025;-72
2022/12/29 01:54:40;;;;;;;2.22;0.40;;;12.10;99.90;;;;;;2073913;28;20045;-72
2022/12/29 01:55:51;;;;;;;2.38;0.40;;;12.10;99.90;;;;;;2074388;28;20021;-72
2022/12/29 01:56:53;;;;;;;1.00;0.30;;;12.10;99.90;;;;;;2073840;28;20041;-72
2022/12/29 01:57:56;;;;;;;1.52;0.40;;;12.10;99.90;;;;;;2071620;28;20025;-72
2022/12/29 01:59:03;;;;;;;0.30;0.30;;;12.10;99.90;;;;;;2073886;28;20091;-72
2022/12/29 02:00:13;;;;;;;0.30;0.30;;;12.10;99.90;;;;;;2072963;28;20599;-72
2022/12/29 02:01:16;;;;;;;0.30;0.30;;;12.10;99.90;;;;;;2072704;28;20037;-72
2022/12/29 02:02:17;;;;;;;0.40;0.40;;;12.20;99.90;;;;;;2073688;28;20033;-72
2022/12/29 02:03:20;;;;;;;1.55;0.30;;;12.10;99.90;;;;;;2074926;28;20463;-72
2022/12/29 02:04:23;;;;;;;0.30;0.30;;;12.20;99.90;;;;;;2074465;28;20025;-72
2022/12/29 02:05:58;;;;;;;0.90;0.40;;;12.20;99.90;;;;;;2073136;28;20033;-72
2022/12/29 02:07:10;;;;;;;0.40;0.40;;;12.20;99.90;;;;;;2074637;28;20045;-72
2022/12/29 02:08:12;;;;;;;0.80;0.40;;;12.20;99.90;;;;;;2073247;28;20104;-72
2022/12/29 02:09:13;;;;;;;0.40;0.40;;;12.20;99.90;;;;;;2071344;28;20049;-72
2022/12/29 02:10:14;;;;;;;1.10;0.40;;;12.20;99.90;;;;;;2073508;28;20032;-72
2022/12/29 02:11:16;;;;;;;0.35;0.30;;;12.20;99.90;;;;;;2074085;28;20342;-72
2022/12/29 02:12:19;;;;;;;0.80;0.40;;;12.20;99.90;;;;;;2072879;28;20048;-72
2022/12/29 02:13:20;;;;;;;0.40;0.40;;;12.20;99.90;;;;;;2072970;28;20030;-72
2022/12/29 02:14:20;;;;;;;0.40;0.40;;;12.20;99.90;;;;;;2074755;28;20056;-72
2022/12/29 02:15:50;;;;;;;0.30;0.30;;;12.20;99.90;;;;;;2073670;28;20037;-72
2022/12/29 02:17:20;;;;;;;1.58;0.40;;;12.20;99.90;;;;;;2069509;28;20042;-72
2022/12/29 02:19:00;;;;;;;0.60;0.38;;;12.20;99.90;;;;;;2067427;28;20042;-72
2022/12/29 02:20:35;;;;;;;1.17;0.30;;;12.20;99.90;;;;;;2064222;28;20152;-72
2022/12/29 02:21:59;;;;;;;1.02;0.50;;;12.20;99.90;;;;;;2071825;28;20030;-72
2022/12/29 02:23:32;;;;;;;0.52;0.40;;;12.20;99.90;;;;;;2073043;28;20045;-72
2022/12/29 02:25:00;;;;;;;0.70;0.35;;;12.20;99.90;;;;;;2063996;28;20648;-72
2022/12/29 02:26:45;;;;;;;0.60;0.30;;;12.20;99.90;;;;;;2073056;28;20049;-72
2022/12/29 02:27:52;;;;;;;0.88;0.38;;;12.20;99.90;;;;;;2072143;28;20052;-72
2022/12/29 02:29:20;;;;;;;0.52;0.40;;;12.10;99.90;;;;;;2073239;28;20620;-72
2022/12/29 02:30:55;;;;;;;1.05;0.95;;;12.20;99.90;;;;;;2073920;28;20038;-72
2022/12/29 02:32:12;;;;;;;2.55;0.40;;;12.20;99.90;;;;;;2073115;28;20397;-72
2022/12/29 02:33:42;;;;;;;1.52;0.47;;;12.20;99.90;;;;;;2074082;28;20030;-72
2022/12/29 02:34:46;;;;;;;1.35;0.88;;;12.20;99.90;;;;;;2072783;28;20029;-72
2022/12/29 02:36:05;;;;;;;1.38;0.40;;;12.20;99.90;;;;;;2076248;28;20021;-72
2022/12/29 02:37:51;;;;;;;1.17;0.47;;;12.20;99.90;;;;;;2072298;28;20105;-72
2022/12/29 02:39:22;;;;;;;2.10;0.40;;;12.20;99.90;;;;;;2056690;28;20539;-72
2022/12/29 02:40:38;;;;;;;0.85;0.40;;;12.20;99.90;;;;;;2072255;28;20037;-72
2022/12/29 02:42:19;;;;;;;0.32;0.30;;;12.20;99.90;;;;;;2074288;28;20053;-72
2022/12/29 02:43:45;;;;;;;0.30;0.30;;;12.20;99.90;;;;;;2072372;28;20080;-72
2022/12/29 02:44:58;;;;;;;0.80;0.35;;;12.20;99.90;;;;;;2074488;28;20041;-72
2022/12/29 02:46:21;;;;;;;0.88;0.40;;;12.20;99.90;;;;;;2073088;28;20084;-72
2022/12/29 02:47:36;;;;;;;1.27;0.45;;;12.20;99.90;;;;;;2073954;28;20556;-72
2022/12/29 02:48:51;;;;;;;1.50;0.50;;;12.20;99.90;;;;;;2074523;28;20045;-72
2022/12/29 02:50:05;;;;;;;0.60;0.30;;;12.20;99.90;;;;;;2075135;28;20032;-72
2022/12/29 02:51:23;;;;;;;0.52;0.40;;;12.30;99.90;;;;;;2075641;28;20031;-72
2022/12/29 02:52:38;;;;;;;1.75;0.38;;;12.30;99.90;;;;;;2074143;28;20056;-72
2022/12/29 02:54:59;;;;;;;;;;;12.30;99.90;;;;;;2073470;28;20124;-72
2022/12/29 02:55:59;;;;;;;0.82;0.50;;;12.20;99.90;;;;;;2073323;28;19913;-72
2022/12/29 02:57:00;;;;;;;1.08;0.45;;;12.20;99.90;;;;;;2074107;28;20030;-71
2022/12/29 02:58:19;;;;;;;0.68;0.47;;;12.30;99.90;;;;;;2074870;28;20013;-72
2022/12/29 02:59:21;;;;;;;0.50;0.50;;;12.30;99.90;;;;;;2074712;28;20081;-72
2022/12/29 03:00:21;;;;;;;0.40;0.40;;;12.30;99.90;;;;;;2074199;28;20284;-72
2022/12/29 03:02:16;;;;;;;0.30;0.30;;;12.30;99.90;;;;;;2078501;28;20036;-72
2022/12/29 03:03:28;;;;;;;0.38;0.38;;;12.30;99.90;;;;;;2072456;28;20041;-72
2022/12/29 03:04:40;;;;;;;0.50;0.50;;;12.30;99.90;;;;;;2074531;28;20472;-72
2022/12/29 03:06:01;;;;;;;1.38;0.43;;;12.30;99.90;;;;;;2074243;28;20025;-72
2022/12/29 03:07:28;;;;;;;1.00;0.50;;;12.30;99.90;;;;;;2072287;28;20100;-72
2022/12/29 03:08:39;;;;;;;0.70;0.40;;;12.30;99.90;;;;;;2075515;28;20411;-72
2022/12/29 03:09:54;;;;;;;0.82;0.70;;;12.30;99.90;;;;;;2073470;28;21077;-72
2022/12/29 03:11:06;;;;;;;0.88;0.55;;;12.30;99.90;;;;;;2074391;28;20038;-72
2022/12/29 03:16:45;;;;;;;1.38;0.60;;;12.40;99.90;;;;;;2073908;28;20101;-72
2022/12/29 03:17:54;;;;;;;1.38;0.80;;;12.40;99.90;;;;;;2076162;28;20106;-72
2022/12/29 03:19:21;;;;;;;0.55;0.40;;;12.40;99.90;;;;;;2075283;28;20029;-72
2022/12/29 03:20:31;;;;;;;1.55;0.70;;;12.40;99.90;;;;;;2081630;28;20029;-72
2022/12/29 03:23:01;;;;;;;1.00;0.52;;;12.40;99.90;;;;;;2074285;28;20533;-72
2022/12/29 03:24:03;;;;;;;0.95;0.50;;;12.40;99.90;;;;;;2075513;28;20405;-72
2022/12/29 03:25:15;;;;;;;2.13;0.80;;;12.40;99.90;;;;;;2074223;28;20037;-72
2022/12/29 03:26:18;;;;;;;1.15;0.55;;;12.40;99.90;;;;;;2074082;28;20032;-72
2022/12/29 03:27:27;;;;;;;3.30;1.05;;;12.40;99.90;;;;;;2076986;28;20014;-72
2022/12/29 03:28:34;;;;;;;0.75;0.75;;;12.40;99.90;;;;;;2075123;28;20022;-72
2022/12/29 03:29:42;;;;;;;0.70;0.70;;;12.50;99.90;;;;;;2074565;28;20050;-72
2022/12/29 03:30:44;;;;;;;1.48;0.55;;;12.50;99.90;;;;;;2073281;28;20022;-72
2022/12/29 03:31:48;;;;;;;1.55;0.80;;;12.40;99.90;;;;;;2075781;28;20018;-72
2022/12/29 03:33:01;;;;;;;1.45;0.60;;;12.50;99.90;;;;;;2075212;28;20021;-74
2022/12/29 03:34:05;;;;;;;1.27;0.70;;;12.50;99.90;;;;;;2074687;28;20030;-72
2022/12/29 03:35:07;;;;;;;1.83;0.70;;;12.50;99.90;;;;;;2073196;28;20029;-72
2022/12/29 03:36:17;;;;;;;1.73;0.75;;;12.50;99.90;;;;;;2073273;28;20029;-72
2022/12/29 03:37:29;;;;;;;1.08;0.60;;;12.50;99.90;;;;;;2072347;28;20032;-71
2022/12/29 03:38:57;;;;;;;1.45;0.60;;;12.50;99.90;;;;;;2076193;28;20041;-72
2022/12/29 03:39:58;;;;;;;1.60;0.60;;;12.50;99.90;;;;;;2075573;28;20032;-72
2022/12/29 03:41:03;;;;;;;1.73;0.52;;;12.50;99.90;;;;;;2074593;28;20030;-72
2022/12/29 03:42:13;;;;;;;1.35;0.50;;;12.50;99.90;;;;;;2075397;28;20037;-72
2022/12/29 03:43:15;;;;;;;2.60;0.50;;;12.50;99.90;;;;;;2076622;28;20108;-71
2022/12/29 03:44:16;;;;;;;1.67;0.70;;;12.50;99.90;;;;;;2078785;28;20692;-72
2022/12/29 03:45:16;;;;;;;0.60;0.43;;;12.50;99.90;;;;;;2075869;28;20421;-72
2022/12/29 03:46:17;;;;;;;0.93;0.60;;;12.50;99.90;;;;;;2074136;28;20041;-72
2022/12/29 03:47:17;;;;;;;1.33;0.70;;;12.60;99.90;;;;;;2073255;28;20037;-72
2022/12/29 03:48:18;;;;;;;3.10;0.82;;;12.60;99.90;;;;;;2075509;28;20393;-71
2022/12/29 03:49:18;;;;;;;0.63;0.63;;;12.60;99.90;;;;;;2072982;28;20148;-72
2022/12/29 03:50:19;;;;;;;1.17;0.70;;;12.60;99.90;;;;;;2073627;28;20038;-72
2022/12/29 03:51:20;;;;;;;1.17;0.60;;;12.60;99.90;;;;;;2076007;28;20034;-72
2022/12/29 03:52:21;;;;;;;1.15;0.77;;;12.60;99.90;;;;;;2073887;28;20529;-72
2022/12/29 03:53:21;;;;;;;0.93;0.60;;;12.60;99.90;;;;;;2074144;28;20075;-72
2022/12/29 03:54:22;;;;;;;2.05;0.60;;;12.60;99.90;;;;;;2074860;28;20107;-72
2022/12/29 03:55:22;;;;;;;0.80;0.60;;;12.60;99.90;;;;;;2073031;28;20030;-72
2022/12/29 03:56:23;;;;;;;1.02;0.50;;;12.60;99.90;;;;;;2074373;28;20041;-72
2022/12/29 03:57:23;;;;;;;1.98;0.63;;;12.60;99.90;;;;;;2076093;28;20036;-72
2022/12/29 03:58:24;;;;;;;0.60;0.40;;;12.60;99.90;;;;;;2072558;28;20663;-72
2022/12/29 03:59:24;;;;;;;1.15;0.40;;;12.60;99.90;;;;;;2075115;28;20048;-72
2022/12/29 04:00:25;;;;;;;0.65;0.52;;;12.60;99.90;;;;;;2074472;28;20040;-72
2022/12/29 04:01:25;;;;;;;1.45;0.65;;;12.60;99.90;;;;;;2074850;28;20025;-72
2022/12/29 04:02:26;;;;;;;0.82;0.50;;;12.60;99.90;;;;;;2074876;28;20034;-72
2022/12/29 04:03:26;;;;;;;1.77;0.90;;;12.60;99.90;;;;;;2076366;28;20608;-72
2022/12/29 04:04:27;;;;;;;0.98;0.68;;;12.60;99.90;;;;;;2074260;28;20059;-72
2022/12/29 04:05:28;;;;;;;0.80;0.50;;;12.60;99.90;;;;;;2071783;28;20052;-71
2022/12/29 04:06:28;;;;;;;0.93;0.70;;;12.60;99.90;;;;;;2074958;28;20034;-72
2022/12/29 04:07:29;;;;;;;1.52;0.45;;;12.60;99.90;;;;;;2074498;28;20037;-72
2022/12/29 04:08:29;;;;;;;1.75;0.65;;;12.60;99.90;;;;;;2073673;28;20072;-72
2022/12/29 04:09:31;;;;;;;3.03;0.60;;;12.60;99.90;;;;;;2073515;28;20108;-72
2022/12/29 04:10:31;;;;;;;1.38;0.73;;;12.60;99.90;;;;;;2075174;28;20029;-72
2022/12/29 04:11:32;;;;;;;1.23;0.68;;;12.60;99.90;;;;;;2075477;28;20029;-72
2022/12/29 04:12:32;;;;;;;1.02;0.90;;;12.60;99.90;;;;;;2074883;28;20030;-72
2022/12/29 04:13:33;;;;;;;1.35;0.77;;;12.60;99.90;;;;;;2075221;28;20049;-72
2022/12/29 04:14:33;;;;;;;6.25;0.93;;;12.60;99.90;;;;;;2075920;28;20032;-72
2022/12/29 04:15:34;;;;;;;1.48;0.60;;;12.60;99.90;;;;;;2075179;28;20022;-72
2022/12/29 04:16:38;;;;;;;1.45;0.55;;;12.60;99.90;;;;;;2072916;28;20050;-72
2022/12/29 04:17:39;;;;;;;1.13;0.50;;;12.60;99.90;;;;;;2075667;28;20497;-72
2022/12/29 04:18:39;;;;;;;1.20;0.60;;;12.60;99.90;;;;;;2073763;28;20446;-72
2022/12/29 04:19:40;;;;;;;3.45;0.50;;;12.60;99.90;;;;;;2074555;28;20025;-72
2022/12/29 04:21:59;;;;;;;1.05;0.50;;;12.60;99.90;;;;;;2074175;28;20066;-72
2022/12/29 04:23:01;;;;;;;1.75;0.50;;;12.60;99.90;;;;;;2075522;28;20033;-72
2022/12/29 04:24:02;;;;;;;1.27;0.70;;;12.60;99.90;;;;;;2072542;28;20378;-72
2022/12/29 04:25:03;;;;;;;1.33;0.68;;;12.60;99.90;;;;;;2073760;28;20041;-72
2022/12/29 04:26:06;;;;;;;1.75;0.50;;;12.50;99.90;;;;;;2076121;28;20021;-72
2022/12/29 04:27:07;;;;;;;0.82;0.63;;;12.60;99.90;;;;;;2075296;28;20101;-72
2022/12/29 04:28:08;;;;;;;1.20;0.73;;;12.60;99.90;;;;;;2073934;28;20034;-72
2022/12/29 04:29:08;;;;;;;1.13;0.50;;;12.60;99.90;;;;;;2074432;28;20053;-72
2022/12/29 04:30:09;;;;;;;0.52;0.50;;;12.60;99.90;;;;;;2074019;28;20033;-72
2022/12/29 04:31:10;;;;;;;1.08;0.70;;;12.50;99.90;;;;;;2075238;28;20025;-72
2022/12/29 04:32:10;;;;;;;0.60;0.60;;;12.60;99.90;;;;;;2073252;28;20097;-72
2022/12/29 04:33:11;;;;;;;1.48;0.60;;;12.50;99.90;;;;;;2073716;28;20038;-72
2022/12/29 04:34:11;;;;;;;0.88;0.50;;;12.50;99.90;;;;;;2075466;28;20100;-72
2022/12/29 04:35:12;;;;;;;1.23;0.50;;;12.50;99.90;;;;;;2072815;28;20022;-72
2022/12/29 04:36:13;;;;;;;1.35;0.57;;;12.50;99.90;;;;;;2073673;28;20824;-72
2022/12/29 04:37:13;;;;;;;1.88;0.77;;;12.50;99.90;;;;;;2072883;28;20037;-72
2022/12/29 04:38:14;;;;;;;0.47;0.47;;;12.60;99.90;;;;;;2072999;28;20385;-72
2022/12/29 04:39:15;;;;;;;1.35;0.50;;;12.50;99.90;;;;;;2073395;28;20056;-72
2022/12/29 04:40:15;;;;;;;1.08;0.45;;;12.50;99.90;;;;;;2070991;28;20050;-72
2022/12/29 04:41:16;;;;;;;0.50;0.47;;;12.50;99.90;;;;;;2074375;28;20084;-72
2022/12/29 04:42:16;;;;;;;0.40;0.40;;;12.50;99.90;;;;;;2074677;28;20026;-72
2022/12/29 04:43:19;;;;;;;0.93;0.63;;;12.50;99.90;;;;;;2075049;28;20088;-72
2022/12/29 04:44:19;;;;;;;0.40;0.40;;;12.50;99.90;;;;;;2074951;28;20478;-72
2022/12/29 04:45:20;;;;;;;0.93;0.40;;;12.50;99.90;;;;;;2074543;28;20756;-72
2022/12/29 04:46:20;;;;;;;0.73;0.40;;;12.50;99.90;;;;;;2074844;28;20029;-72
2022/12/29 04:47:21;;;;;;;1.20;0.47;;;12.50;99.90;;;;;;2073647;28;20037;-72
2022/12/29 04:48:21;;;;;;;0.95;0.47;;;12.50;99.90;;;;;;2073327;28;20026;-72
2022/12/29 04:49:23;;;;;;;0.95;0.40;;;12.50;99.90;;;;;;2073895;28;20770;-72
2022/12/29 04:50:23;;;;;;;0.82;0.45;;;12.50;99.90;;;;;;2072178;28;20371;-72
2022/12/29 04:51:24;;;;;;;0.45;0.45;;;12.60;99.90;;;;;;2072603;28;20068;-72
2022/12/29 04:52:24;;;;;;;2.42;0.80;;;12.60;99.90;;;;;;2073456;28;20033;-72
2022/12/29 04:53:25;;;;;;;2.85;0.52;;;12.60;99.90;;;;;;2072973;28;20034;-72
2022/12/29 04:54:25;;;;;;;1.65;0.32;;;12.60;99.90;;;;;;2073497;28;20029;-72
2022/12/29 04:55:26;;;;;;;0.45;0.32;;;12.60;99.90;;;;;;2074321;28;20099;-72
2022/12/29 04:56:26;;;;;;;0.52;0.35;;;12.60;99.90;;;;;;2073077;28;20068;-72
2022/12/29 04:57:27;;;;;;;1.30;0.50;;;12.60;99.90;;;;;;2073626;28;20020;-72
2022/12/29 04:58:28;;;;;;;2.08;0.40;;;12.60;99.90;;;;;;2076818;28;20025;-71
2022/12/29 04:59:28;;;;;;;0.75;0.55;;;12.60;99.90;;;;;;2073769;28;20294;-72
2022/12/29 05:00:29;;;;;;;1.60;0.70;;;12.60;99.90;;;;;;2074953;28;20033;-72
2022/12/29 05:01:29;;;;;;;0.70;0.38;;;12.60;99.90;;;;;;2074686;28;20025;-72
2022/12/29 05:02:30;;;;;;;1.77;0.65;;;12.60;99.90;;;;;;2074943;28;20045;-72
2022/12/29 05:03:30;;;;;;;0.60;0.50;;;12.60;99.90;;;;;;2077674;28;20465;-72
2022/12/29 05:04:31;;;;;;;0.75;0.50;;;12.60;99.90;;;;;;2076159;28;20033;-71
2022/12/29 05:05:31;;;;;;;0.95;0.52;;;12.60;99.90;;;;;;2071916;28;20030;-72
2022/12/29 05:06:32;;;;;;;0.40;0.40;;;12.60;99.90;;;;;;2072900;28;20041;-72
2022/12/29 05:07:33;;;;;;;1.23;0.40;;;12.60;99.90;;;;;;2073175;28;20032;-72
2022/12/29 05:08:33;;;;;;;1.30;0.50;;;12.70;99.90;;;;;;2074015;28;20482;-72
2022/12/29 05:09:34;;;;;;;1.23;0.40;;;12.70;99.90;;;;;;2074432;28;20696;-72
2022/12/29 05:10:34;;;;;;;0.77;0.50;;;12.70;99.90;;;;;;2074834;28;20097;-72
2022/12/29 05:11:35;;;;;;;0.90;0.70;;;12.70;99.90;;;;;;2075109;28;20222;-72
2022/12/29 05:12:37;;;;;;;1.25;0.68;;;12.70;99.90;;;;;;2076339;28;20025;-72
2022/12/29 05:13:37;;;;;;;2.00;0.32;;;12.70;99.90;;;;;;2072965;28;20797;-72
2022/12/29 05:14:38;;;;;;;1.50;0.52;;;12.80;99.90;;;;;;2075399;28;20390;-72
2022/12/29 05:15:38;;;;;;;1.17;0.52;;;12.80;99.90;;;;;;2072773;28;20017;-72
2022/12/29 05:16:39;;;;;;;0.70;0.45;;;12.80;99.90;;;;;;2073698;28;20037;-72
2022/12/29 05:17:39;;;;;;;1.88;0.50;;;12.80;99.90;;;;;;2075069;28;20031;-72
2022/12/29 05:18:40;;;;;;;0.93;0.38;;;12.80;99.90;;;;;;2073317;28;20052;-72
2022/12/29 05:19:40;;;;;;;1.08;0.50;;;12.80;99.90;;;;;;2074414;28;21552;-72
2022/12/29 05:20:41;;;;;;;1.17;0.65;;;12.80;99.90;;;;;;2073261;28;20448;-72
2022/12/29 05:21:42;;;;;;;4.20;0.73;;;12.80;99.90;;;;;;2073289;28;20060;-72
2022/12/29 05:22:42;;;;;;;1.98;0.73;;;12.80;99.90;;;;;;2075313;28;20033;-72
2022/12/29 05:23:43;;;;;;;1.55;0.50;;;12.80;99.90;;;;;;2074089;28;20034;-72
2022/12/29 05:24:43;;;;;;;3.75;0.63;;;12.80;99.90;;;;;;2074499;28;20091;-72
2022/12/29 05:25:45;;;;;;;1.90;0.40;;;12.80;99.90;;;;;;2074382;28;20021;-72
2022/12/29 05:26:46;;;;;;;1.67;0.60;;;12.80;99.90;;;;;;2074795;28;20112;-72
2022/12/29 05:27:46;;;;;;;2.08;0.82;;;12.80;99.90;;;;;;2074637;28;20065;-72
2022/12/29 05:28:47;;;;;;;1.85;0.50;;;12.90;99.90;;;;;;2073050;28;20030;-72
2022/12/29 05:29:47;;;;;;;1.42;0.82;;;12.80;99.90;;;;;;2072359;28;20076;-72
2022/12/29 05:30:49;;;;;;;1.67;0.68;;;12.90;99.90;;;;;;2073483;28;20033;-72
2022/12/29 05:31:50;;;;;;;1.45;0.52;;;12.90;99.90;;;;;;2074353;28;20104;-72
2022/12/29 05:32:51;;;;;;;0.85;0.60;;;12.90;99.90;;;;;;2073706;28;20096;-71
2022/12/29 05:33:51;;;;;;;1.55;0.60;;;12.90;99.90;;;;;;2074391;28;20064;-72
2022/12/29 05:34:52;;;;;;;0.60;0.60;;;12.90;99.90;;;;;;2074043;28;20022;-72
2022/12/29 05:35:52;;;;;;;1.27;0.47;;;12.90;99.90;;;;;;2072596;28;20030;-72
2022/12/29 05:36:53;;;;;;;1.70;0.60;;;12.90;99.90;;;;;;2074719;28;20061;-72
2022/12/29 05:37:53;;;;;;;3.10;0.52;;;12.90;99.90;;;;;;2073719;28;20055;-72
2022/12/29 05:38:54;;;;;;;0.73;0.55;;;12.90;99.90;;;;;;2073990;28;20058;-72
2022/12/29 05:39:55;;;;;;;0.93;0.65;;;12.90;99.90;;;;;;2074321;28;20029;-72
2022/12/29 05:40:55;;;;;;;2.38;0.70;;;13.00;99.90;;;;;;2074219;28;20811;-72
2022/12/29 05:41:56;;;;;;;0.68;0.40;;;13.00;99.90;;;;;;2074176;28;20041;-72
2022/12/29 05:42:56;;;;;;;1.30;0.50;;;13.00;99.90;;;;;;2075354;28;20048;-72
2022/12/29 05:43:57;;;;;;;1.70;0.57;;;12.90;99.90;;;;;;2071110;28;20033;-72
2022/12/29 05:44:57;;;;;;;0.88;0.60;;;13.00;99.90;;;;;;2073690;28;20029;-72
2022/12/29 05:45:58;;;;;;;1.23;0.57;;;13.00;99.90;;;;;;2074493;28;20057;-72
2022/12/29 05:46:58;;;;;;;2.38;0.65;;;13.00;99.90;;;;;;2072630;28;20022;-72
2022/12/29 05:47:59;;;;;;;1.13;0.50;;;13.00;99.90;;;;;;2075180;28;20022;-72
2022/12/29 05:48:59;;;;;;;0.82;0.57;;;12.90;99.90;;;;;;2071928;28;20017;-72
2022/12/29 05:50:01;;;;;;;1.15;0.55;;;13.00;99.90;;;;;;2073185;28;20034;-72
2022/12/29 05:51:01;;;;;;;1.95;0.98;;;13.00;99.90;;;;;;2074321;28;20041;-72
2022/12/29 05:52:02;;;;;;;1.85;0.73;;;13.00;99.90;;;;;;2075469;28;20032;-72
2022/12/29 05:53:02;;;;;;;1.85;0.52;;;13.00;99.90;;;;;;2073869;28;20029;-72
2022/12/29 05:54:03;;;;;;;1.73;0.50;;;13.00;99.90;;;;;;2073013;28;20029;-72
2022/12/29 05:55:04;;;;;;;0.82;0.57;;;13.00;99.90;;;;;;2072171;28;20694;-72
2022/12/29 05:56:05;;;;;;;1.42;0.60;;;13.00;99.90;;;;;;2072187;28;20061;-72
2022/12/29 05:57:06;;;;;;;1.27;0.70;;;13.00;99.90;;;;;;2073153;28;20069;-72
2022/12/29 05:58:06;;;;;;;4.68;0.80;;;13.00;99.90;;;;;;2071902;28;20026;-72
2022/12/29 05:59:07;;;;;;;1.17;0.80;;;13.00;99.90;;;;;;2070745;28;20034;-72
2022/12/29 06:00:08;;;;;;;2.70;0.93;;;13.00;99.90;;;;;;2072601;28;20180;-72
2022/12/29 06:01:09;;;;;;;0.63;0.60;;;13.00;99.90;;;;;;2073443;28;20030;-71
2022/12/29 06:02:10;;;;;;;1.05;0.55;;;13.00;99.90;;;;;;2072828;28;20075;-72
2022/12/29 06:03:10;;;;;;;0.93;0.60;;;13.00;99.90;;;;;;2073442;28;20577;-72
2022/12/29 06:04:11;;;;;;;0.95;0.60;;;13.00;99.90;;;;;;2074766;28;20024;-71
2022/12/29 06:05:11;;;;;;;3.55;0.75;;;13.00;99.90;;;;;;2072716;28;20721;-72
2022/12/29 06:06:12;;;;;;;2.97;1.00;;;13.00;99.90;;;;;;2072930;28;20026;-72
2022/12/29 06:07:12;;;;;;;1.90;0.88;;;13.00;99.90;;;;;;2071635;28;20108;-72
2022/12/29 06:08:13;;;;;;;1.45;0.80;;;13.00;99.90;;;;;;2073975;28;20029;-72
2022/12/29 06:09:13;;;;;;;2.60;1.10;;;13.00;99.90;;;;;;2071612;28;20032;-72
2022/12/29 06:10:14;;;;;;;3.40;0.93;;;12.90;99.90;;;;;;2071741;28;20076;-71
2022/12/29 06:11:14;;;;;;;2.63;0.77;;;13.00;99.90;;;;;;2075695;28;20077;-72